createdAt,value
2019-02-16T00:02:16.525Z,58.20
2019-02-16T00:04:46.394Z,57.90
2019-02-16T00:07:19.727Z,57.70
2019-02-16T00:09:49.474Z,57.40
2019-02-16T00:12:22.465Z,57.00
2019-02-16T00:14:50.407Z,56.90
2019-02-16T00:17:21.683Z,56.80
2019-02-16T00:19:52.812Z,56.50
2019-02-16T00:22:23.315Z,56.50
2019-02-16T00:24:53.260Z,56.60
2019-02-16T00:27:22.985Z,56.50
2019-02-16T00:29:54.282Z,56.50
2019-02-16T00:32:23.793Z,56.30
2019-02-16T00:34:53.471Z,56.40
2019-02-16T00:37:25.821Z,56.10
2019-02-16T00:39:55.492Z,56.20
2019-02-16T00:42:25.155Z,56.20
2019-02-16T00:44:54.656Z,56.00
2019-02-16T00:47:24.307Z,55.90
2019-02-16T00:49:54.099Z,55.60
2019-02-16T00:52:26.057Z,56.10
2019-02-16T00:54:54.927Z,55.50
2019-02-16T00:57:27.048Z,55.80
2019-02-16T00:59:57.166Z,55.80
2019-02-16T01:02:27.701Z,56.00
2019-02-16T01:04:57.570Z,55.80
2019-02-16T01:07:27.111Z,55.70
2019-02-16T01:09:59.381Z,55.90
2019-02-16T01:12:29.402Z,55.90
2019-02-16T01:14:58.948Z,56.20
2019-02-16T01:17:28.402Z,56.20
2019-02-16T01:19:57.962Z,56.40
2019-02-16T01:22:27.555Z,56.20
2019-02-16T01:24:57.345Z,56.30
2019-02-16T01:27:26.862Z,56.30
2019-02-16T01:29:56.367Z,56.10
2019-02-16T01:32:25.880Z,55.90
2019-02-16T01:34:55.378Z,55.90
2019-02-16T01:37:24.878Z,55.70
2019-02-16T01:39:54.363Z,55.30
2019-02-16T01:42:24.369Z,55.20
2019-02-16T01:44:53.962Z,55.20
2019-02-16T01:47:23.947Z,55.20
2019-02-16T01:49:53.585Z,55.10
2019-02-16T01:52:23.240Z,55.00
2019-02-16T01:54:52.751Z,54.40
2019-02-16T01:57:22.316Z,54.50
2019-02-16T01:59:52.296Z,54.60
2019-02-16T02:02:22.084Z,54.50
2019-02-16T02:04:51.936Z,54.10
2019-02-16T02:07:21.772Z,54.30
2019-02-16T02:09:51.687Z,53.90
2019-02-16T02:12:21.405Z,53.40
2019-02-16T02:14:50.934Z,53.40
2019-02-16T02:17:20.813Z,53.40
2019-02-16T02:19:50.356Z,53.10
2019-02-16T02:22:20.085Z,52.90
2019-02-16T02:24:49.931Z,52.60
2019-02-16T02:27:19.606Z,52.20
2019-02-16T02:29:49.328Z,52.50
2019-02-16T02:32:20.441Z,51.50
2019-02-16T02:34:50.243Z,51.40
2019-02-16T02:37:19.952Z,51.50
2019-02-16T02:39:49.525Z,51.40
2019-02-16T02:42:21.179Z,51.50
2019-02-16T02:44:50.718Z,51.30
2019-02-16T02:47:20.592Z,51.10
2019-02-16T02:49:50.418Z,51.20
2019-02-16T02:52:20.082Z,51.10
2019-02-16T02:54:51.054Z,51.10
2019-02-16T02:57:20.763Z,51.00
2019-02-16T02:59:52.268Z,50.70
2019-02-16T03:02:24.513Z,50.70
2019-02-16T03:04:53.468Z,50.90
2019-02-16T03:07:23.394Z,50.90
2019-02-16T03:09:52.896Z,50.80
2019-02-16T03:12:22.411Z,50.70
2019-02-16T03:14:52.032Z,50.90
2019-02-16T03:17:21.929Z,51.10
2019-02-16T03:19:52.502Z,51.20
2019-02-16T03:22:22.209Z,51.60
2019-02-16T03:24:51.747Z,51.90
2019-02-16T03:27:26.227Z,52.20
2019-02-16T03:29:59.179Z,52.50
2019-02-16T03:32:42.424Z,52.90
2019-02-16T03:35:31.274Z,53.30
2019-02-16T03:38:14.790Z,53.60
2019-02-16T03:40:47.237Z,53.80
2019-02-16T03:43:16.794Z,54.10
2019-02-16T03:45:46.243Z,54.40
2019-02-16T03:48:16.171Z,54.50
2019-02-16T03:50:45.833Z,54.70
2019-02-16T03:53:15.660Z,55.00
2019-02-16T03:55:45.635Z,55.00
2019-02-16T03:58:15.183Z,55.70
2019-02-16T04:00:44.945Z,56.40
2019-02-16T04:03:14.648Z,56.60
2019-02-16T04:05:44.248Z,56.60
2019-02-16T04:08:14.040Z,56.80
2019-02-16T04:10:43.669Z,56.70
2019-02-16T04:13:13.385Z,56.50
2019-02-16T04:15:43.344Z,56.50
2019-02-16T04:18:12.868Z,56.10
2019-02-16T04:20:42.380Z,55.60
2019-02-16T04:23:12.368Z,55.50
2019-02-16T04:25:43.265Z,55.00
2019-02-16T04:28:12.911Z,54.80
2019-02-16T04:30:42.441Z,54.60
2019-02-16T04:33:11.878Z,54.40
2019-02-16T04:35:41.552Z,54.30
2019-02-16T04:38:11.263Z,54.80
2019-02-16T04:40:40.856Z,53.90
2019-02-16T04:43:10.658Z,54.00
2019-02-16T04:45:40.545Z,54.00
2019-02-16T04:48:10.159Z,54.10
2019-02-16T04:50:39.627Z,54.30
2019-02-16T04:53:09.321Z,54.80
2019-02-16T04:55:39.063Z,55.10
2019-02-16T04:58:08.788Z,55.30
2019-02-16T05:00:38.455Z,55.30
2019-02-16T05:03:08.273Z,55.00
2019-02-16T05:05:39.141Z,54.50
2019-02-16T05:08:08.648Z,53.80
2019-02-16T05:10:40.654Z,53.40
2019-02-16T05:13:10.230Z,53.10
2019-02-16T05:15:39.923Z,53.20
2019-02-16T05:18:11.206Z,53.10
2019-02-16T05:20:49.195Z,53.00
2019-02-16T05:23:18.792Z,53.00
2019-02-16T05:25:52.233Z,53.00
2019-02-16T05:28:21.875Z,53.00
2019-02-16T05:30:51.728Z,52.80
2019-02-16T05:33:22.896Z,53.10
2019-02-16T05:35:52.447Z,53.20
2019-02-16T05:38:26.997Z,53.50
2019-02-16T05:40:56.495Z,53.50
2019-02-16T05:43:26.227Z,53.60
2019-02-16T05:45:56.862Z,53.70
2019-02-16T05:48:29.298Z,53.90
2019-02-16T05:51:00.685Z,54.10
2019-02-16T05:53:32.590Z,54.30
2019-02-16T05:56:02.157Z,54.60
2019-02-16T05:58:31.874Z,54.60
2019-02-16T06:01:07.887Z,54.90
2019-02-16T06:03:37.522Z,55.10
2019-02-16T06:06:07.263Z,55.40
2019-02-16T06:08:36.891Z,55.80
2019-02-16T06:11:06.479Z,56.30
2019-02-16T06:13:36.026Z,56.00
2019-02-16T06:16:05.549Z,56.10
2019-02-16T06:18:36.397Z,56.30
2019-02-16T06:21:08.807Z,56.30
2019-02-16T06:23:38.807Z,56.60
2019-02-16T06:26:08.417Z,56.50
2019-02-16T06:28:39.497Z,56.40
2019-02-16T06:31:09.172Z,56.40
2019-02-16T06:33:38.648Z,56.60
2019-02-16T06:36:23.626Z,56.50
2019-02-16T06:38:53.203Z,56.50
2019-02-16T06:41:22.785Z,56.20
2019-02-16T06:43:52.552Z,55.90
2019-02-16T06:46:22.132Z,55.40
2019-02-16T06:48:52.082Z,55.20
2019-02-16T06:51:21.753Z,54.80
2019-02-16T06:53:51.250Z,54.40
2019-02-16T06:56:35.607Z,54.10
2019-02-16T06:59:07.616Z,53.90
2019-02-16T07:01:39.625Z,54.00
2019-02-16T07:04:11.165Z,54.30
2019-02-16T07:06:41.171Z,54.40
2019-02-16T07:09:12.712Z,54.30
2019-02-16T07:11:42.470Z,54.50
2019-02-16T07:14:12.163Z,54.50
2019-02-16T07:17:07.038Z,54.00
2019-02-16T07:19:46.058Z,53.80
2019-02-16T07:22:16.799Z,51.50
2019-02-16T07:24:51.955Z,44.20
2019-02-16T07:27:22.779Z,38.40
2019-02-16T07:29:53.707Z,33.90
2019-02-16T07:32:24.504Z,30.80
2019-02-16T07:34:55.248Z,28.60
2019-02-16T07:37:26.200Z,26.20
2019-02-16T07:39:59.371Z,24.00
2019-02-16T07:42:48.269Z,22.40
2019-02-16T07:45:35.748Z,21.20
2019-02-16T07:48:42.789Z,20.60
2019-02-16T07:51:44.313Z,19.20
2019-02-16T07:54:33.046Z,18.10
2019-02-16T07:57:26.084Z,17.00
2019-02-16T08:00:15.012Z,16.10
2019-02-16T08:03:14.089Z,16.40
2019-02-16T08:06:05.323Z,15.30
2019-02-16T08:08:50.816Z,14.80
2019-02-16T08:11:42.853Z,15.10
2019-02-16T08:14:20.911Z,15.20
2019-02-16T08:17:13.493Z,15.10
2019-02-16T08:19:59.776Z,15.00
2019-02-16T08:22:41.010Z,14.80
2019-02-16T08:25:33.471Z,14.60
2019-02-16T08:28:12.000Z,14.30
2019-02-16T08:30:55.089Z,14.40
2019-02-16T08:33:54.294Z,13.90
2019-02-16T08:38:50.725Z,14.00
2019-02-16T08:40:21.860Z,13.70
2019-02-16T08:43:04.100Z,13.40
2019-02-16T08:45:50.445Z,13.30
2019-02-16T08:48:37.349Z,13.00
2019-02-16T08:51:24.079Z,12.70
2019-02-16T08:54:17.091Z,12.60
2019-02-16T08:57:10.675Z,12.00
2019-02-16T08:59:59.171Z,11.80
2019-02-16T09:02:58.023Z,11.40
2019-02-16T09:05:40.622Z,11.70
2019-02-16T09:08:18.480Z,11.80
2019-02-16T09:11:07.152Z,11.80
2019-02-16T09:13:50.089Z,11.80
2019-02-16T09:16:31.311Z,11.40
2019-02-16T09:19:18.661Z,11.30
2019-02-16T09:22:02.952Z,11.20
2019-02-16T09:24:51.709Z,11.10
2019-02-16T09:27:45.603Z,10.80
2019-02-16T09:30:34.376Z,10.70
2019-02-16T09:33:26.716Z,10.90
2019-02-16T09:36:31.976Z,11.10
2019-02-16T09:39:12.618Z,11.10
2019-02-16T09:41:59.783Z,11.10
2019-02-16T09:44:53.920Z,11.20
2019-02-16T09:48:01.482Z,11.20
2019-02-16T09:51:14.779Z,11.20
2019-02-16T09:54:08.356Z,11.00
2019-02-16T09:56:51.711Z,11.00
2019-02-16T09:59:37.448Z,10.70
2019-02-16T10:02:30.954Z,10.90
2019-02-16T10:05:20.988Z,10.50
2019-02-16T10:08:13.146Z,10.70
2019-02-16T10:10:53.379Z,10.80
2019-02-16T10:13:43.199Z,10.70
2019-02-16T10:16:36.251Z,10.60
2019-02-16T10:19:40.482Z,10.60
2019-02-16T10:22:22.527Z,10.50
2019-02-16T10:25:16.624Z,10.50
2019-02-16T10:28:03.590Z,10.40
2019-02-16T10:30:55.083Z,10.30
2019-02-16T10:34:06.203Z,10.30
2019-02-16T10:36:57.785Z,9.90
2019-02-16T10:40:03.987Z,9.80
2019-02-16T10:42:45.059Z,9.70
2019-02-16T10:45:33.428Z,9.70
2019-02-16T10:48:12.345Z,9.60
2019-02-16T10:50:51.317Z,9.70
2019-02-16T10:53:54.523Z,9.70
2019-02-16T10:56:35.301Z,9.30
2019-02-16T10:59:40.274Z,9.20
2019-02-16T11:02:38.823Z,9.20
2019-02-16T11:05:34.379Z,9.50
2019-02-16T11:08:15.763Z,9.70
2019-02-16T11:11:08.856Z,10.00
2019-02-16T11:13:54.780Z,10.60
2019-02-16T11:16:44.953Z,10.70
2019-02-16T11:19:42.930Z,11.60
2019-02-16T11:22:19.048Z,10.80
2019-02-16T11:25:13.799Z,11.20
2019-02-16T11:28:20.366Z,11.10
2019-02-16T11:31:05.165Z,11.00
2019-02-16T11:34:02.766Z,11.30
2019-02-16T11:36:45.915Z,11.10
2019-02-16T11:39:49.221Z,11.10
2019-02-16T11:42:26.871Z,11.40
2019-02-16T11:45:20.395Z,11.70
2019-02-16T11:48:13.343Z,12.10
2019-02-16T11:51:09.288Z,12.10
2019-02-16T11:53:56.385Z,12.50
2019-02-16T11:56:52.327Z,13.50
2019-02-16T11:59:57.002Z,15.00
2019-02-16T12:02:49.827Z,17.60
2019-02-16T12:05:45.387Z,20.60
2019-02-16T12:08:27.142Z,22.70
2019-02-16T12:11:13.340Z,24.30
2019-02-16T12:14:06.007Z,25.70
2019-02-16T12:16:51.794Z,26.20
2019-02-16T12:19:41.767Z,26.90
2019-02-16T12:22:36.876Z,27.40
2019-02-16T12:25:21.265Z,27.80
2019-02-16T12:28:21.614Z,28.30
2019-02-16T12:31:04.036Z,28.30
2019-02-16T12:33:55.749Z,28.60
2019-02-16T12:36:55.091Z,28.60
2019-02-16T12:39:44.873Z,28.80
2019-02-16T12:42:30.963Z,28.70
2019-02-16T12:45:21.475Z,29.20
2019-02-16T12:48:04.906Z,29.00
2019-02-16T12:50:43.705Z,29.20
2019-02-16T12:53:32.280Z,29.20
2019-02-16T12:56:16.414Z,29.40
2019-02-16T12:58:56.804Z,29.70
2019-02-16T13:01:43.020Z,29.70
2019-02-16T13:04:40.236Z,30.00
2019-02-16T13:07:16.396Z,30.10
2019-02-16T13:09:55.925Z,30.20
2019-02-16T13:12:44.476Z,30.10
2019-02-16T13:15:49.027Z,30.60
2019-02-16T13:18:39.708Z,30.50
2019-02-16T13:21:27.339Z,30.60
2019-02-16T13:24:09.104Z,30.60
2019-02-16T13:26:49.177Z,30.80
2019-02-16T13:29:48.220Z,31.00
2019-02-16T13:32:38.035Z,31.30
2019-02-16T13:35:31.037Z,31.10
2019-02-16T13:38:30.345Z,31.00
2019-02-16T13:41:19.004Z,31.40
2019-02-16T13:44:11.752Z,31.70
2019-02-16T13:46:54.482Z,31.50
2019-02-16T13:49:37.467Z,31.50
2019-02-16T13:52:36.259Z,31.80
2019-02-16T13:55:17.417Z,31.90
2019-02-16T13:58:09.717Z,32.20
2019-02-16T14:00:59.599Z,32.00
2019-02-16T14:03:52.308Z,32.50
2019-02-16T14:06:42.139Z,33.20
2019-02-16T14:09:29.722Z,33.10
2019-02-16T14:12:15.633Z,33.30
2019-02-16T14:15:07.580Z,33.50
2019-02-16T14:17:47.552Z,33.50
2019-02-16T14:20:18.161Z,33.40
2019-02-16T14:22:48.894Z,33.70
2019-02-16T14:25:43.749Z,33.70
2019-02-16T14:28:12.998Z,33.40
2019-02-16T14:30:43.658Z,33.30
2019-02-16T14:33:16.299Z,33.60
2019-02-16T14:35:47.038Z,34.00
2019-02-16T14:38:35.389Z,34.00
2019-02-16T14:41:09.103Z,33.80
2019-02-16T14:43:39.796Z,33.70
2019-02-16T14:46:11.517Z,33.50
2019-02-16T14:48:42.320Z,33.60
2019-02-16T14:51:12.965Z,33.70
2019-02-16T14:53:43.455Z,33.70
2019-02-16T14:56:14.312Z,33.70
2019-02-16T14:58:45.183Z,33.80
2019-02-16T15:01:15.923Z,33.60
2019-02-16T15:03:46.784Z,33.80
2019-02-16T15:06:17.661Z,34.10
2019-02-16T15:08:48.482Z,34.70
2019-02-16T15:11:20.975Z,34.70
2019-02-16T15:13:51.631Z,35.10
2019-02-16T15:16:22.996Z,35.10
2019-02-16T15:18:53.804Z,34.90
2019-02-16T15:21:26.457Z,35.10
2019-02-16T15:23:58.587Z,35.10
2019-02-16T15:26:29.469Z,35.30
2019-02-16T15:29:03.033Z,35.40
2019-02-16T15:31:35.925Z,35.60
2019-02-16T15:34:06.765Z,36.00
2019-02-16T15:36:37.628Z,36.10
2019-02-16T15:39:08.509Z,36.60
2019-02-16T15:41:39.507Z,36.90
2019-02-16T15:44:10.816Z,37.10
2019-02-16T15:46:41.765Z,37.70
2019-02-16T15:49:14.086Z,37.90
2019-02-16T15:51:44.916Z,38.30
2019-02-16T15:54:15.889Z,38.90
2019-02-16T15:56:48.314Z,39.80
2019-02-16T15:59:20.896Z,39.90
2019-02-16T16:01:54.948Z,40.20
2019-02-16T16:04:25.918Z,40.40
2019-02-16T16:06:56.670Z,40.70
2019-02-16T16:09:39.302Z,41.20
2019-02-16T16:12:24.627Z,40.70
2019-02-16T16:15:17.378Z,40.30
2019-02-16T16:17:59.198Z,40.10
2019-02-16T16:20:49.421Z,40.60
2019-02-16T16:23:39.654Z,40.80
2019-02-16T16:26:23.659Z,41.30
2019-02-16T16:29:13.604Z,41.60
2019-02-16T16:32:05.830Z,41.60
2019-02-16T16:35:04.540Z,41.90
2019-02-16T16:37:40.528Z,42.50
2019-02-16T16:40:31.621Z,43.10
2019-02-16T16:43:36.918Z,43.40
2019-02-16T16:46:26.723Z,43.80
2019-02-16T16:49:16.991Z,43.60
2019-02-16T16:52:15.116Z,43.70
2019-02-16T16:55:10.529Z,44.00
2019-02-16T16:57:51.129Z,44.60
2019-02-16T17:00:51.520Z,45.40
2019-02-16T17:03:40.185Z,45.10
2019-02-16T17:06:36.193Z,45.10
2019-02-16T17:09:26.884Z,45.50
2019-02-16T17:12:22.739Z,45.70
2019-02-16T17:15:26.786Z,46.00
2019-02-16T17:18:08.889Z,47.30
2019-02-16T17:20:59.650Z,48.40
2019-02-16T17:23:49.694Z,48.60
2019-02-16T17:26:42.053Z,47.90
2019-02-16T17:29:19.687Z,48.70
2019-02-16T17:32:00.827Z,49.60
2019-02-16T17:34:42.178Z,48.60
2019-02-16T17:37:32.163Z,48.70
2019-02-16T17:40:40.450Z,48.40
2019-02-16T17:43:37.307Z,48.50
2019-02-16T17:46:45.607Z,47.80
2019-02-16T17:49:33.656Z,47.40
2019-02-16T17:52:19.330Z,46.80
2019-02-16T17:55:21.724Z,48.00
2019-02-16T17:58:00.794Z,47.60
2019-02-16T18:00:44.996Z,48.20
2019-02-16T18:03:23.850Z,49.20
2019-02-16T18:06:07.085Z,49.70
2019-02-16T18:09:06.019Z,49.70
2019-02-16T18:11:52.193Z,50.70
2019-02-16T18:14:37.019Z,51.90
2019-02-16T18:18:21.868Z,52.00
2019-02-16T18:21:21.441Z,53.40
2019-02-16T18:24:25.862Z,54.30
2019-02-16T18:27:25.777Z,54.50
2019-02-16T18:30:30.310Z,55.20
2019-02-16T18:33:33.928Z,56.40
2019-02-16T18:36:39.567Z,56.60
2019-02-16T18:39:52.321Z,56.90
2019-02-16T18:42:35.312Z,56.50
2019-02-16T18:45:28.976Z,56.70
2019-02-16T18:48:11.706Z,56.60
2019-02-16T18:51:17.642Z,56.20
2019-02-16T18:54:06.115Z,56.30
2019-02-16T18:57:06.300Z,56.20
2019-02-16T18:59:38.802Z,56.10
2019-02-16T19:02:35.475Z,56.30
2019-02-16T19:05:25.796Z,56.10
2019-02-16T19:08:09.043Z,56.10
2019-02-16T19:10:52.928Z,56.30
2019-02-16T19:14:08.404Z,56.20
2019-02-16T19:17:18.086Z,56.20
2019-02-16T19:19:59.565Z,56.30
2019-02-16T19:22:42.698Z,56.70
2019-02-16T19:25:52.199Z,56.80
2019-02-16T19:28:33.512Z,57.40
2019-02-16T19:31:25.065Z,58.10
2019-02-16T19:34:19.637Z,58.60
2019-02-16T19:37:12.776Z,59.00
2019-02-16T19:40:01.499Z,58.80
2019-02-16T19:42:46.592Z,58.70
2019-02-16T19:45:28.809Z,59.00
2019-02-16T19:48:16.672Z,58.60
2019-02-16T19:51:04.464Z,58.40
2019-02-16T19:53:58.708Z,58.50
2019-02-16T19:56:45.346Z,58.60
2019-02-16T19:59:38.690Z,59.00
2019-02-16T20:02:26.172Z,59.80
2019-02-16T20:05:09.659Z,59.10
2019-02-16T20:07:54.921Z,59.60
2019-02-16T20:10:43.948Z,60.30
2019-02-16T20:13:34.586Z,60.30
2019-02-16T20:16:17.863Z,60.50
2019-02-16T20:19:19.608Z,60.60
2019-02-16T20:22:05.570Z,60.10
2019-02-16T20:25:06.158Z,60.40
2019-02-16T20:28:14.680Z,60.10
2019-02-16T20:31:00.205Z,60.40
2019-02-16T20:33:58.505Z,60.40
2019-02-16T20:36:36.028Z,60.30
2019-02-16T20:39:28.892Z,60.60
2019-02-16T20:42:11.395Z,61.10
2019-02-16T20:44:59.969Z,61.20
2019-02-16T20:47:47.423Z,61.50
2019-02-16T20:51:08.300Z,61.70
2019-02-16T20:54:25.879Z,62.10
2019-02-16T20:57:28.334Z,62.00
2019-02-16T21:00:33.624Z,62.30
2019-02-16T21:03:25.827Z,62.70
2019-02-16T21:06:32.630Z,63.00
2019-02-16T21:09:55.105Z,63.60
2019-02-16T21:12:57.098Z,63.70
2019-02-16T21:23:27.615Z,64.30
2019-02-16T21:26:36.288Z,64.70
2019-02-16T21:29:28.391Z,64.80
2019-02-16T21:32:13.359Z,65.20
2019-02-16T21:35:32.196Z,65.40
2019-02-16T21:38:41.809Z,65.50
2019-02-16T21:41:27.224Z,65.40
2019-02-16T21:44:08.500Z,65.40
2019-02-16T21:47:05.616Z,65.60
2019-02-16T21:50:32.734Z,66.00
2019-02-16T21:53:48.639Z,66.40
2019-02-16T22:00:27.599Z,67.90
2019-02-16T22:03:32.493Z,69.40
2019-02-16T22:09:55.985Z,71.40
2019-02-16T22:13:00.996Z,72.20
2019-02-16T22:16:01.087Z,72.60
2019-02-16T22:18:32.645Z,72.90
2019-02-16T22:21:08.999Z,72.90
2019-02-16T22:23:55.849Z,73.00
2019-02-16T22:26:24.530Z,73.30
2019-02-16T22:28:58.392Z,73.50
2019-02-16T22:31:42.927Z,73.60
2019-02-16T22:34:16.477Z,73.40
2019-02-16T22:36:56.516Z,73.60
2019-02-16T22:39:27.840Z,73.60
2019-02-16T22:41:58.921Z,73.80
2019-02-16T22:44:29.953Z,73.90
2019-02-16T22:47:10.692Z,74.00
2019-02-16T22:49:44.151Z,74.10
2019-02-16T22:52:28.973Z,74.40
2019-02-16T22:55:36.207Z,74.50
2019-02-16T22:57:54.783Z,74.50
2019-02-16T23:00:52.041Z,74.60
2019-02-16T23:03:37.618Z,74.70
2019-02-16T23:06:21.516Z,75.40
2019-02-16T23:09:32.036Z,75.50
2019-02-16T23:12:30.537Z,75.70
2019-02-16T23:15:01.865Z,76.00
2019-02-16T23:17:50.006Z,75.90
2019-02-16T23:20:31.536Z,75.80
2019-02-16T23:23:30.871Z,75.80
2019-02-16T23:26:04.693Z,76.10
2019-02-16T23:28:46.797Z,76.50
2019-02-16T23:31:26.076Z,76.60
2019-02-16T23:34:07.268Z,76.80
2019-02-16T23:36:53.418Z,77.10
2019-02-16T23:39:56.921Z,77.20
2019-02-16T23:42:30.415Z,77.30
2019-02-16T23:45:07.271Z,77.60
2019-02-16T23:47:39.106Z,77.80
2019-02-16T23:50:32.486Z,77.90
2019-02-16T23:53:27.830Z,78.20
2019-02-16T23:56:00.822Z,78.60
2019-02-16T23:59:00.945Z,79.00
